Mount Sterling, OH (43143)

7:06 PM EST on December 22, 2014 (GMT -0500)
Bolton | Change Station
CLOSE
Current Station
Airport
Location: Bolton Field,
Elevation: 906 ft
Nearby Weather Stations

Elev 906 ft 39.90 °N, 83.14 °W | Updated 11 minutes ago

Overcast
Overcast
45 °F
Feels Like 40 °F
N
8
Wind Variable Wind from ESE

Today
High -- | Low -- °F
--% Chance of Precip.
Yesterday
High -- | Low -- °F
Precip. -- in
7:51 AM 5:12 PM
New Moon, 1% visible
Pressure 29.86 in
Visibility 10.0 miles
Clouds Overcast 11000 ft
Windchill 40 °F
Dew Point 37 °F
Humidity 73%
Rainfall 0.00 in
Snow Depth Not available.
UV 0 out of 12
Pollen .10 out of 12
Air Quality Not available.
Flu Activity Not available.
METAR KTZR 222355Z AUTO 11007KT 10SM OVC110 07/03 A2986 RMK AO2 T00710026 10083 20057

More Conditions Fewer Conditions

Pressure 29.86 in
Visibility 10.0 miles
Clouds Overcast 11000 ft
Windchill 40 °F
Dew Point 37 °F
Humidity 73%
Rainfall 0.00 in
Snow Depth Not available.
UV 0 out of 12
Pollen .10 out of 12
Air Quality Not available.
Flu Activity Not available.
METAR KTZR 222355Z AUTO 11007KT 10SM OVC110 07/03 A2986 RMK AO2 T00710026 10083 20057

More Conditions Fewer Conditions

10-Day Weather Forecast

Almanac

Astronomy

Dec. 22, 2014 Rise Set
Actual Time
Civil Twilight
Nautical Twilight
Astronomical Twilight
Moon
Length of Visible Light
Length of Day
Tomorrow will be .
, % of the Moon is Illuminated

Today's Extremes

State Highs State Lows

Community

WunderPhotos

Upload Photos

1,779,732 photos uploaded!

WunderBlogs® & News

Nearby

Air Quality

  Air Quality AQ Index Pollutant
Not available.

Snow Depth

Station Depth Elevation

Earthquake Activity

City Distance Mag. Time & Date
Minimum magnitude displayed is 2.5.

Coastal Water Temperatures

Place Temperature

Nearby Weather Stations